createdAt,value
2023-02-19T05:04:45.307Z,3.92
2023-02-19T05:08:56.787Z,3.83
2023-02-19T05:13:11.350Z,3.28
2023-02-19T05:17:23.945Z,3.80
2023-02-19T05:21:35.693Z,3.70
2023-02-19T05:25:47.532Z,3.55
2023-02-19T05:29:59.255Z,3.25
2023-02-19T05:34:11.013Z,3.58
2023-02-19T05:38:23.784Z,3.42
2023-02-19T05:42:35.282Z,3.30
2023-02-19T05:46:46.814Z,4.03
2023-02-19T05:51:06.183Z,3.60
2023-02-19T05:55:17.713Z,3.88
2023-02-19T05:59:29.280Z,3.80
2023-02-19T06:03:40.785Z,3.67
2023-02-19T06:07:52.330Z,3.90
2023-02-19T06:12:04.011Z,3.55
2023-02-19T06:16:17.462Z,3.70
2023-02-19T06:20:29.663Z,4.10
2023-02-19T06:24:41.169Z,3.50
2023-02-19T06:28:54.409Z,3.88
2023-02-19T06:33:05.897Z,3.47
2023-02-19T06:37:17.395Z,3.58
2023-02-19T06:41:28.986Z,3.58
2023-02-19T06:45:40.527Z,3.78
2023-02-19T06:49:52.068Z,3.80
2023-02-19T06:54:03.806Z,3.60
2023-02-19T06:58:15.357Z,3.80
2023-02-19T07:02:27.171Z,3.47
2023-02-19T07:06:39.072Z,3.45
2023-02-19T07:10:58.445Z,3.63
2023-02-19T07:15:10.222Z,3.00
2023-02-19T07:19:21.736Z,3.28
2023-02-19T07:23:33.220Z,3.30
2023-02-19T07:27:44.753Z,2.85
2023-02-19T07:31:56.326Z,3.30
2023-02-19T07:36:08.378Z,2.80
2023-02-19T07:40:19.902Z,3.13
2023-02-19T07:44:31.388Z,2.97
2023-02-19T07:48:43.213Z,2.80
2023-02-19T07:52:54.666Z,2.90
2023-02-19T07:57:06.177Z,2.80
2023-02-19T08:01:40.070Z,2.80
2023-02-19T08:05:53.780Z,2.90
2023-02-19T08:10:24.313Z,3.00
2023-02-19T08:14:36.061Z,2.92
2023-02-19T08:18:48.004Z,2.95
2023-02-19T08:23:01.567Z,2.75
2023-02-19T08:27:13.466Z,2.80
2023-02-19T08:31:25.535Z,3.03
2023-02-19T08:35:37.133Z,2.63
2023-02-19T08:39:48.632Z,2.65
2023-02-19T08:44:00.119Z,2.80
2023-02-19T08:48:12.320Z,2.75
2023-02-19T08:52:23.904Z,2.60
2023-02-19T08:56:35.386Z,2.67
2023-02-19T09:00:47.344Z,2.85
2023-02-19T09:04:59.158Z,2.63
2023-02-19T09:09:10.645Z,2.78
2023-02-19T09:13:22.127Z,2.42
2023-02-19T09:17:33.615Z,2.60
2023-02-19T09:21:45.172Z,2.90
2023-02-19T09:25:59.753Z,2.47
2023-02-19T09:30:11.394Z,2.45
2023-02-19T09:34:22.935Z,2.45
2023-02-19T09:38:34.438Z,2.75
2023-02-19T09:42:45.933Z,2.58
2023-02-19T09:47:00.028Z,2.83
2023-02-19T09:51:12.673Z,2.90
2023-02-19T09:55:32.374Z,2.47
2023-02-19T10:00:05.367Z,2.63
2023-02-19T10:04:16.891Z,2.80
2023-02-19T10:08:33.356Z,2.38
2023-02-19T10:12:51.998Z,2.40
2023-02-19T10:17:06.039Z,2.35
2023-02-19T10:21:21.595Z,2.95
2023-02-19T10:25:34.977Z,2.63
2023-02-19T10:29:48.986Z,2.35
2023-02-19T10:34:02.043Z,2.50
2023-02-19T10:38:17.183Z,2.25
2023-02-19T10:42:28.688Z,2.72
2023-02-19T10:46:46.162Z,3.00
2023-02-19T10:51:05.012Z,2.40
2023-02-19T10:55:26.707Z,2.55
2023-02-19T10:59:38.310Z,2.85
2023-02-19T11:04:23.213Z,3.05
2023-02-19T11:08:46.591Z,2.75
2023-02-19T11:13:01.599Z,2.50
2023-02-19T11:17:26.823Z,2.45
2023-02-19T11:21:38.351Z,2.13
2023-02-19T11:25:52.786Z,2.10
2023-02-19T11:30:42.394Z,1.83
2023-02-19T11:35:15.289Z,1.83
2023-02-19T11:39:31.135Z,1.83
2023-02-19T11:44:01.285Z,2.47
2023-02-19T11:48:40.605Z,2.25
2023-02-19T11:53:01.180Z,2.03
2023-02-19T11:57:31.243Z,2.08
2023-02-19T12:02:16.937Z,3.95
2023-02-19T12:06:56.359Z,2.30
2023-02-19T12:11:38.818Z,3.70
2023-02-19T12:16:10.747Z,3.58
2023-02-19T12:20:31.840Z,11.35
2023-02-19T12:25:24.852Z,9.23
2023-02-19T12:29:59.782Z,4.40
2023-02-19T12:34:46.319Z,2.97
2023-02-19T12:39:03.885Z,1.52
2023-02-19T12:43:23.168Z,2.03
2023-02-19T12:47:42.122Z,2.42
2023-02-19T12:52:00.376Z,2.90
2023-02-19T12:56:18.669Z,2.47
2023-02-19T13:00:36.348Z,2.80
2023-02-19T13:05:25.371Z,2.42
2023-02-19T13:09:52.214Z,2.30
2023-02-19T13:14:06.766Z,2.10
2023-02-19T13:18:37.041Z,2.25
2023-02-19T13:23:20.289Z,2.40
2023-02-19T13:28:17.779Z,2.00
2023-02-19T13:32:52.480Z,2.25
2023-02-19T13:37:04.580Z,2.20
2023-02-19T13:41:32.342Z,1.88
2023-02-19T13:45:46.056Z,1.70
2023-02-19T13:50:06.621Z,1.95
2023-02-19T13:54:39.940Z,1.38
2023-02-19T13:58:58.536Z,1.60
2023-02-19T14:03:34.362Z,1.35
2023-02-19T14:07:54.924Z,1.73
2023-02-19T14:12:15.066Z,1.85
2023-02-19T14:16:37.800Z,1.88
2023-02-19T14:20:49.446Z,1.67
2023-02-19T14:25:01.514Z,1.50
2023-02-19T14:29:16.468Z,2.00
2023-02-19T14:33:34.724Z,2.28
2023-02-19T14:37:48.356Z,2.13
2023-02-19T14:42:06.692Z,2.10
2023-02-19T14:46:28.035Z,2.50
2023-02-19T14:50:39.831Z,1.80
2023-02-19T14:55:05.500Z,1.70
2023-02-19T14:59:19.984Z,2.08
2023-02-19T15:03:33.561Z,1.92
2023-02-19T15:07:45.701Z,1.83
2023-02-19T15:11:58.299Z,2.10
2023-02-19T15:16:09.807Z,1.90
2023-02-19T15:20:27.451Z,4.93
2023-02-19T15:24:46.497Z,2.55
2023-02-19T15:29:01.793Z,1.88
2023-02-19T15:33:20.497Z,1.90
2023-02-19T15:37:35.498Z,1.67
2023-02-19T15:41:54.213Z,2.05
2023-02-19T15:46:20.259Z,2.03
2023-02-19T15:50:34.407Z,1.73
2023-02-19T15:54:59.517Z,1.90
2023-02-19T15:59:33.763Z,2.25
2023-02-19T16:03:45.278Z,1.92
2023-02-19T16:08:19.152Z,2.85
2023-02-19T16:12:31.924Z,3.25
2023-02-19T16:16:46.351Z,2.05
2023-02-19T16:20:58.273Z,2.15
2023-02-19T16:25:24.781Z,2.00
2023-02-19T16:29:36.298Z,2.05
2023-02-19T16:33:49.732Z,2.00
2023-02-19T16:38:01.215Z,2.15
2023-02-19T16:42:14.494Z,2.28
2023-02-19T16:46:26.766Z,2.00
2023-02-19T16:50:41.458Z,2.00
2023-02-19T16:54:53.159Z,2.13
2023-02-19T16:59:06.771Z,1.92
2023-02-19T17:03:21.304Z,1.90
2023-02-19T17:07:32.846Z,2.50
2023-02-19T17:11:44.375Z,2.58
2023-02-19T17:15:56.639Z,2.40
2023-02-19T17:20:17.233Z,2.40
2023-02-19T17:24:28.773Z,3.33
2023-02-19T17:28:41.468Z,2.58
2023-02-19T17:32:53.166Z,1.75
2023-02-19T17:37:04.667Z,3.15
2023-02-19T17:41:16.172Z,2.42
2023-02-19T17:45:27.739Z,2.65
2023-02-19T17:49:39.228Z,2.72
2023-02-19T17:53:50.700Z,2.85
2023-02-19T17:58:02.192Z,2.38
2023-02-19T18:02:13.711Z,2.70
2023-02-19T18:06:25.293Z,2.50
2023-02-19T18:10:37.037Z,1.88
2023-02-19T18:14:48.533Z,2.15
2023-02-19T18:19:02.104Z,2.47
2023-02-19T18:23:13.626Z,1.85
2023-02-19T18:27:25.199Z,2.28
2023-02-19T18:31:39.566Z,2.30
2023-02-19T18:35:51.216Z,3.03
2023-02-19T18:40:04.312Z,2.38
2023-02-19T18:44:21.097Z,2.47
2023-02-19T18:48:32.574Z,2.47
2023-02-19T18:52:45.094Z,2.42
2023-02-19T18:56:57.309Z,3.65
2023-02-19T19:01:09.448Z,4.30
2023-02-19T19:05:22.996Z,2.35
2023-02-19T19:09:34.911Z,2.60
2023-02-19T19:13:46.463Z,2.33
2023-02-19T19:17:59.560Z,2.25
2023-02-19T19:22:11.503Z,2.67
2023-02-19T19:26:23.018Z,2.30
2023-02-19T19:30:34.782Z,2.42
2023-02-19T19:34:47.451Z,2.40
2023-02-19T19:38:59.068Z,2.33
2023-02-19T19:43:12.100Z,2.15
2023-02-19T19:47:23.591Z,2.58
2023-02-19T19:51:35.546Z,2.35
2023-02-19T19:55:47.116Z,2.60
2023-02-19T19:59:58.665Z,2.67
2023-02-19T20:04:10.224Z,3.20
2023-02-19T20:08:21.970Z,3.03
2023-02-19T20:12:33.735Z,2.95
2023-02-19T20:16:47.364Z,2.55
2023-02-19T20:20:59.647Z,2.60
2023-02-19T20:25:13.773Z,2.47
2023-02-19T20:29:33.467Z,2.55
2023-02-19T20:33:45.202Z,2.45
2023-02-19T20:37:56.853Z,3.13
2023-02-19T20:42:08.494Z,3.28
2023-02-19T20:46:20.039Z,2.70
2023-02-19T20:50:31.563Z,3.50
2023-02-19T20:54:44.324Z,2.80
2023-02-19T20:58:55.846Z,5.35
2023-02-19T21:03:08.958Z,3.00
2023-02-19T21:07:20.750Z,2.95
2023-02-19T21:11:32.649Z,2.40
2023-02-19T21:15:44.253Z,2.80
2023-02-19T21:19:55.774Z,2.50
2023-02-19T21:24:07.647Z,2.85
2023-02-19T21:28:19.673Z,2.70
2023-02-19T21:32:31.248Z,2.47
2023-02-19T21:36:43.145Z,3.65
2023-02-19T21:40:54.837Z,2.88
2023-02-19T21:45:06.817Z,2.60
2023-02-19T21:49:18.669Z,3.38
2023-02-19T21:53:30.241Z,2.75
2023-02-19T21:57:42.019Z,2.95
2023-02-19T22:01:53.867Z,4.18
2023-02-19T22:06:05.573Z,5.82
2023-02-19T22:10:18.768Z,6.22
2023-02-19T22:14:30.297Z,3.72
2023-02-19T22:18:49.544Z,3.40
2023-02-19T22:23:01.055Z,3.83
2023-02-19T22:27:12.577Z,3.55
